Terminal Aerodrome Forecast
Issued by NWS Green Bay, WI

Home | Current Version | Previous Version | Graphics & Text | Print | Product List | Glossary On
Versions: 1 2 3 4 5 6 7 8 9 10 11 12 13 14 15 16 17 18 19 20 21 22 23 24 25 26 27 28 29 30 31 32 33 34 35 36 37 38 39 40 41 42 43 44 45 46 47 48 49 50
533
FTUS43 KGRB 170528
TAFGRB
TAF
KGRB 170528Z 1706/1806 04009KT 5SM -RA BR OVC005
      TEMPO 1706/1710 2SM FZRAPL BR OVC002
     FM171500 02007KT 3SM -SHRAPL BR OVC009
     FM171900 35007KT 5SM -SHSN OVC014
     FM172300 33005KT P6SM BKN020=

USA.gov is the U.S. government's official web portal to all federal, state and local government web resources and services.